sensor_id;sensor_type;location;lat;lon;timestamp;pressure;altitude;pressure_sealevel;temperature;humidity
17383;BME280;8809;51.892;8.384;2023-09-30T00:00:13;101467.09;;;22.11;67.64
17383;BME280;8809;51.892;8.384;2023-09-30T00:02:40;101468.88;;;22.12;68.12
17383;BME280;8809;51.892;8.384;2023-09-30T00:05:07;101467.91;;;22.04;67.86
17383;BME280;8809;51.892;8.384;2023-09-30T00:07:35;101469.66;;;22.02;68.13
17383;BME280;8809;51.892;8.384;2023-09-30T00:10:05;101470.44;;;21.93;68.49
17383;BME280;8809;51.892;8.384;2023-09-30T00:12:32;101482.75;;;21.83;68.53
17383;BME280;8809;51.892;8.384;2023-09-30T00:15:11;101474.78;;;21.80;68.69
17383;BME280;8809;51.892;8.384;2023-09-30T00:17:51;101482.69;;;21.76;68.50
17383;BME280;8809;51.892;8.384;2023-09-30T00:20:18;101485.44;;;21.87;68.29
17383;BME280;8809;51.892;8.384;2023-09-30T00:22:48;101485.19;;;21.59;69.09
17383;BME280;8809;51.892;8.384;2023-09-30T00:25:21;101473.78;;;21.69;68.93
17383;BME280;8809;51.892;8.384;2023-09-30T00:27:48;101486.34;;;21.87;68.03
17383;BME280;8809;51.892;8.384;2023-09-30T00:30:17;101482.75;;;21.80;68.20
17383;BME280;8809;51.892;8.384;2023-09-30T00:32:50;101490.72;;;21.80;68.00
17383;BME280;8809;51.892;8.384;2023-09-30T00:35:18;101498.66;;;21.79;67.76
17383;BME280;8809;51.892;8.384;2023-09-30T00:37:46;101507.50;;;21.78;67.95
17383;BME280;8809;51.892;8.384;2023-09-30T00:40:14;101505.66;;;21.69;68.23
17383;BME280;8809;51.892;8.384;2023-09-30T00:42:49;101517.06;;;21.64;68.49
17383;BME280;8809;51.892;8.384;2023-09-30T00:45:17;101503.75;;;21.58;68.62
17383;BME280;8809;51.892;8.384;2023-09-30T00:47:45;101514.41;;;21.61;68.40
17383;BME280;8809;51.892;8.384;2023-09-30T00:50:15;101509.06;;;21.58;68.62
17383;BME280;8809;51.892;8.384;2023-09-30T01:22:13;101497.38;;;21.42;68.33
17383;BME280;8809;51.892;8.384;2023-09-30T01:24:41;101500.09;;;21.48;68.21
17383;BME280;8809;51.892;8.384;2023-09-30T01:27:08;101486.78;;;21.46;68.27
17383;BME280;8809;51.892;8.384;2023-09-30T01:29:36;101481.44;;;21.42;68.40
17383;BME280;8809;51.892;8.384;2023-09-30T01:32:04;101498.19;;;21.38;68.46
17383;BME280;8809;51.892;8.384;2023-09-30T01:34:33;101505.28;;;21.37;68.11
17383;BME280;8809;51.892;8.384;2023-09-30T01:37:04;101491.06;;;21.32;68.75
17383;BME280;8809;51.892;8.384;2023-09-30T01:39:35;101499.91;;;21.31;68.62
17383;BME280;8809;51.892;8.384;2023-09-30T01:42:02;101490.22;;;21.36;68.20
17383;BME280;8809;51.892;8.384;2023-09-30T01:44:30;101497.34;;;21.39;67.88
17383;BME280;8809;51.892;8.384;2023-09-30T01:46:58;101498.19;;;21.36;67.89
17383;BME280;8809;51.892;8.384;2023-09-30T01:49:25;101493.75;;;21.35;67.80
17383;BME280;8809;51.892;8.384;2023-09-30T01:51:53;101503.56;;;21.44;67.41
17383;BME280;8809;51.892;8.384;2023-09-30T01:54:20;101506.22;;;21.41;67.46
17383;BME280;8809;51.892;8.384;2023-09-30T01:56:49;101498.28;;;21.45;67.12
17383;BME280;8809;51.892;8.384;2023-09-30T01:59:16;101491.06;;;21.34;67.34
17383;BME280;8809;51.892;8.384;2023-09-30T02:01:44;101484.81;;;21.29;67.77
17383;BME280;8809;51.892;8.384;2023-09-30T02:04:12;101486.69;;;21.37;67.11
17383;BME280;8809;51.892;8.384;2023-09-30T02:06:41;101502.59;;;21.36;67.15
17383;BME280;8809;51.892;8.384;2023-09-30T02:09:08;101502.66;;;21.40;67.02
17383;BME280;8809;51.892;8.384;2023-09-30T02:11:36;101516.84;;;21.41;66.73
17383;BME280;8809;51.892;8.384;2023-09-30T02:14:09;101518.63;;;21.45;67.00
17383;BME280;8809;51.892;8.384;2023-09-30T02:16:43;101514.25;;;21.48;66.49
17383;BME280;8809;51.892;8.384;2023-09-30T02:19:11;101529.00;;;21.24;67.43
17383;BME280;8809;51.892;8.384;2023-09-30T02:21:39;101529.09;;;21.31;66.92
17383;BME280;8809;51.892;8.384;2023-09-30T02:24:07;101519.38;;;21.35;66.78
17383;BME280;8809;51.892;8.384;2023-09-30T02:26:34;101517.50;;;21.26;67.07
17383;BME280;8809;51.892;8.384;2023-09-30T02:29:01;101518.47;;;21.30;66.72
17383;BME280;8809;51.892;8.384;2023-09-30T02:31:30;101525.47;;;21.26;67.16
17383;BME280;8809;51.892;8.384;2023-09-30T02:33:58;101529.81;;;21.18;67.16
17383;BME280;8809;51.892;8.384;2023-09-30T02:36:25;101529.94;;;21.29;66.78
17383;BME280;8809;51.892;8.384;2023-09-30T02:38:54;101539.63;;;21.24;66.73
17383;BME280;8809;51.892;8.384;2023-09-30T02:41:21;101531.47;;;21.15;67.03
17383;BME280;8809;51.892;8.384;2023-09-30T02:43:51;101522.59;;;21.09;67.43
17383;BME280;8809;51.892;8.384;2023-09-30T02:46:19;101523.31;;;20.99;67.61
17383;BME280;8809;51.892;8.384;2023-09-30T02:48:47;101537.59;;;21.07;67.23
17383;BME280;8809;51.892;8.384;2023-09-30T02:51:24;101542.72;;;20.94;67.63
17383;BME280;8809;51.892;8.384;2023-09-30T02:53:54;101552.41;;;20.92;67.73
17383;BME280;8809;51.892;8.384;2023-09-30T02:56:22;101535.50;;;20.87;67.80
17383;BME280;8809;51.892;8.384;2023-09-30T02:58:52;101543.47;;;20.87;67.74
17383;BME280;8809;51.892;8.384;2023-09-30T03:01:19;101540.81;;;20.87;68.02
17383;BME280;8809;51.892;8.384;2023-09-30T03:37:36;101531.56;;;20.59;67.45
17383;BME280;8809;51.892;8.384;2023-09-30T03:40:04;101527.25;;;20.65;67.32
17383;BME280;8809;51.892;8.384;2023-09-30T03:42:38;101541.41;;;20.66;67.05
17383;BME280;8809;51.892;8.384;2023-09-30T03:45:08;101538.66;;;20.60;67.19
17383;BME280;8809;51.892;8.384;2023-09-30T03:47:36;101518.22;;;20.53;67.17
17383;BME280;8809;51.892;8.384;2023-09-30T03:50:05;101514.50;;;20.42;67.66
17383;BME280;8809;51.892;8.384;2023-09-30T03:52:42;101517.28;;;20.51;67.62
17383;BME280;8809;51.892;8.384;2023-09-30T03:55:11;101519.88;;;20.48;67.32
17383;BME280;8809;51.892;8.384;2023-09-30T03:57:40;101522.50;;;20.45;67.26
17383;BME280;8809;51.892;8.384;2023-09-30T04:00:08;101527.81;;;20.45;67.29
17383;BME280;8809;51.892;8.384;2023-09-30T04:02:41;101529.72;;;20.53;66.54
17383;BME280;8809;51.892;8.384;2023-09-30T04:07:38;101537.47;;;20.41;67.20
17383;BME280;8809;51.892;8.384;2023-09-30T04:10:10;101533.84;;;20.34;67.26
17383;BME280;8809;51.892;8.384;2023-09-30T04:12:37;101534.50;;;20.24;67.49
17383;BME280;8809;51.892;8.384;2023-09-30T04:15:06;101535.34;;;20.22;67.67
17383;BME280;8809;51.892;8.384;2023-09-30T04:17:39;101536.94;;;20.12;67.89
17383;BME280;8809;51.892;8.384;2023-09-30T04:20:07;101533.59;;;20.22;67.13
17383;BME280;8809;51.892;8.384;2023-09-30T04:22:42;101529.34;;;20.33;66.82
17383;BME280;8809;51.892;8.384;2023-09-30T04:25:13;101526.78;;;20.35;66.26
17383;BME280;8809;51.892;8.384;2023-09-30T04:27:42;101534.50;;;20.24;66.49
17383;BME280;8809;51.892;8.384;2023-09-30T04:30:10;101541.63;;;20.27;66.59
17383;BME280;8809;51.892;8.384;2023-09-30T04:32:41;101539.00;;;20.30;66.41
17383;BME280;8809;51.892;8.384;2023-09-30T04:35:10;101541.06;;;20.45;65.69
17383;BME280;8809;51.892;8.384;2023-09-30T04:37:38;101542.81;;;20.44;65.48
17383;BME280;8809;51.892;8.384;2023-09-30T04:40:07;101533.00;;;20.37;65.64
17383;BME280;8809;51.892;8.384;2023-09-30T04:42:42;101538.97;;;20.27;65.88
17383;BME280;8809;51.892;8.384;2023-09-30T04:45:14;101543.19;;;20.16;66.42
17383;BME280;8809;51.892;8.384;2023-09-30T04:47:45;101541.28;;;20.07;66.40
17383;BME280;8809;51.892;8.384;2023-09-30T04:50:14;101540.56;;;20.19;65.90
17383;BME280;8809;51.892;8.384;2023-09-30T04:52:44;101561.88;;;20.23;65.81
17383;BME280;8809;51.892;8.384;2023-09-30T05:14:11;101560.00;;;20.19;65.41
17383;BME280;8809;51.892;8.384;2023-09-30T05:16:40;101558.38;;;20.26;64.86
17383;BME280;8809;51.892;8.384;2023-09-30T05:19:09;101562.78;;;20.25;65.11
17383;BME280;8809;51.892;8.384;2023-09-30T05:21:39;101569.75;;;20.20;65.24
17383;BME280;8809;51.892;8.384;2023-09-30T05:24:08;101579.41;;;20.15;65.42
17383;BME280;8809;51.892;8.384;2023-09-30T05:26:39;101577.34;;;19.99;66.34
17383;BME280;8809;51.892;8.384;2023-09-30T05:29:10;101573.09;;;20.09;66.07
17383;BME280;8809;51.892;8.384;2023-09-30T05:31:38;101585.28;;;19.99;66.32
17383;BME280;8809;51.892;8.384;2023-09-30T05:34:08;101574.69;;;20.00;66.02
17383;BME280;8809;51.892;8.384;2023-09-30T05:36:35;101583.59;;;20.04;66.48
17383;BME280;8809;51.892;8.384;2023-09-30T05:39:02;101570.25;;;19.99;66.58
17383;BME280;8809;51.892;8.384;2023-09-30T05:41:31;101567.59;;;19.98;66.37
17383;BME280;8809;51.892;8.384;2023-09-30T05:44:08;101571.16;;;20.00;66.10
17383;BME280;8809;51.892;8.384;2023-09-30T05:46:37;101570.25;;;19.99;66.36
17383;BME280;8809;51.892;8.384;2023-09-30T05:49:04;101569.38;;;19.99;66.53
17383;BME280;8809;51.892;8.384;2023-09-30T05:51:35;101574.84;;;20.08;66.43
17383;BME280;8809;51.892;8.384;2023-09-30T05:54:02;101585.44;;;20.08;66.76
17383;BME280;8809;51.892;8.384;2023-09-30T05:56:30;101586.28;;;20.06;66.59
17383;BME280;8809;51.892;8.384;2023-09-30T05:58:58;101597.88;;;20.12;65.91
17383;BME280;8809;51.892;8.384;2023-09-30T06:01:25;101597.88;;;20.12;65.70
17383;BME280;8809;51.892;8.384;2023-09-30T06:03:54;101597.78;;;20.06;66.11
17383;BME280;8809;51.892;8.384;2023-09-30T06:06:22;101597.56;;;19.95;66.42
17383;BME280;8809;51.892;8.384;2023-09-30T06:08:50;101604.69;;;19.98;66.04
17383;BME280;8809;51.892;8.384;2023-09-30T06:11:17;101598.38;;;19.93;66.65
17383;BME280;8809;51.892;8.384;2023-09-30T06:13:44;101599.19;;;19.87;66.63
17383;BME280;8809;51.892;8.384;2023-09-30T06:16:12;101609.81;;;19.90;66.50
17383;BME280;8809;51.892;8.384;2023-09-30T06:18:39;101625.03;;;20.00;65.74
17383;BME280;8809;51.892;8.384;2023-09-30T06:21:08;101620.47;;;19.93;66.07
17383;BME280;8809;51.892;8.384;2023-09-30T06:23:35;101618.00;;;20.02;65.67
17383;BME280;8809;51.892;8.384;2023-09-30T06:26:02;101616.38;;;20.11;65.55
17383;BME280;8809;51.892;8.384;2023-09-30T06:28:29;101623.25;;;20.01;65.58
17383;BME280;8809;51.892;8.384;2023-09-30T06:30:59;101620.44;;;19.92;66.21
17383;BME280;8809;51.892;8.384;2023-09-30T06:33:26;101622.22;;;19.93;66.27
17383;BME280;8809;51.892;8.384;2023-09-30T06:35:55;101625.69;;;19.89;66.45
17383;BME280;8809;51.892;8.384;2023-09-30T06:38:23;101624.72;;;19.85;66.70
17383;BME280;8809;51.892;8.384;2023-09-30T06:40:50;101628.28;;;19.86;66.72
17383;BME280;8809;51.892;8.384;2023-09-30T06:43:17;101616.56;;;19.75;66.61
17383;BME280;8809;51.892;8.384;2023-09-30T06:45:45;101621.19;;;19.85;66.25
17383;BME280;8809;51.892;8.384;2023-09-30T06:48:13;101617.81;;;19.93;66.54
17383;BME280;8809;51.892;8.384;2023-09-30T06:50:43;101625.00;;;19.99;66.99
17383;BME280;8809;51.892;8.384;2023-09-30T06:53:11;101628.44;;;19.95;66.58
17383;BME280;8809;51.892;8.384;2023-09-30T06:55:40;101625.63;;;19.86;66.72
17383;BME280;8809;51.892;8.384;2023-09-30T06:58:07;101633.50;;;19.83;67.81
17383;BME280;8809;51.892;8.384;2023-09-30T07:00:34;101631.03;;;19.92;67.52
17383;BME280;8809;51.892;8.384;2023-09-30T07:03:02;101632.81;;;19.93;67.74
17383;BME280;8809;51.892;8.384;2023-09-30T07:05:29;101634.44;;;19.85;68.24
17383;BME280;8809;51.892;8.384;2023-09-30T07:07:56;101634.53;;;19.91;67.97
17383;BME280;8809;51.892;8.384;2023-09-30T07:34:20;101664.59;;;20.35;72.71
17383;BME280;8809;51.892;8.384;2023-09-30T07:36:48;101657.75;;;20.48;72.52
17383;BME280;8809;51.892;8.384;2023-09-30T07:39:14;101661.81;;;20.30;73.42
17383;BME280;8809;51.892;8.384;2023-09-30T07:41:43;101660.38;;;20.46;73.34
17383;BME280;8809;51.892;8.384;2023-09-30T07:44:10;101656.88;;;20.49;73.63
17383;BME280;8809;51.892;8.384;2023-09-30T07:46:37;101651.66;;;20.53;73.20
17383;BME280;8809;51.892;8.384;2023-09-30T07:49:03;101654.59;;;20.70;72.64
17383;BME280;8809;51.892;8.384;2023-09-30T07:51:33;101669.34;;;20.53;74.17
17383;BME280;8809;51.892;8.384;2023-09-30T07:54:01;101670.41;;;20.62;73.95
17383;BME280;8809;51.892;8.384;2023-09-30T07:56:28;101680.31;;;20.74;74.03
17383;BME280;8809;51.892;8.384;2023-09-30T07:58:55;101682.44;;;20.93;73.38
17383;BME280;8809;51.892;8.384;2023-09-30T08:01:22;101680.84;;;21.06;72.88
17383;BME280;8809;51.892;8.384;2023-09-30T08:03:49;101686.28;;;21.14;73.02
17383;BME280;8809;51.892;8.384;2023-09-30T08:06:16;101674.00;;;21.19;73.27
17383;BME280;8809;51.892;8.384;2023-09-30T08:08:45;101682.94;;;21.22;73.29
17383;BME280;8809;51.892;8.384;2023-09-30T08:34:31;101697.81;;;21.74;72.52
17383;BME280;8809;51.892;8.384;2023-09-30T08:36:59;101689.94;;;21.79;71.94
17383;BME280;8809;51.892;8.384;2023-09-30T08:39:27;101699.84;;;21.91;71.59
17383;BME280;8809;51.892;8.384;2023-09-30T08:41:55;101697.47;;;22.10;69.32
17383;BME280;8809;51.892;8.384;2023-09-30T08:44:23;101704.63;;;22.20;68.62
17383;BME280;8809;51.892;8.384;2023-09-30T08:46:50;101707.31;;;22.22;68.89
17383;BME280;8809;51.892;8.384;2023-09-30T08:49:18;101707.50;;;22.37;68.54
17383;BME280;8809;51.892;8.384;2023-09-30T08:51:48;101705.94;;;22.57;67.65
17383;BME280;8809;51.892;8.384;2023-09-30T08:54:16;101709.78;;;22.84;66.43
17383;BME280;8809;51.892;8.384;2023-09-30T08:56:46;101707.19;;;22.91;66.26
17383;BME280;8809;51.892;8.384;2023-09-30T08:59:15;101711.81;;;23.17;65.94
17383;BME280;8809;51.892;8.384;2023-09-30T09:01:43;101718.13;;;23.29;66.33
17383;BME280;8809;51.892;8.384;2023-09-30T09:04:10;101718.19;;;23.37;64.60
17383;BME280;8809;51.892;8.384;2023-09-30T09:06:37;101715.41;;;23.20;66.29
17383;BME280;8809;51.892;8.384;2023-09-30T09:09:15;101716.41;;;23.36;64.43
17383;BME280;8809;51.892;8.384;2023-09-30T09:32:37;101717.72;;;24.02;60.02
17383;BME280;8809;51.892;8.384;2023-09-30T09:35:05;101715.13;;;24.23;59.51
17383;BME280;8809;51.892;8.384;2023-09-30T09:37:34;101723.16;;;24.26;59.00
17383;BME280;8809;51.892;8.384;2023-09-30T09:40:00;101713.44;;;24.39;59.45
17383;BME280;8809;51.892;8.384;2023-09-30T09:42:30;101708.13;;;24.54;59.25
17383;BME280;8809;51.892;8.384;2023-09-30T09:44:59;101712.59;;;24.67;57.95
17383;BME280;8809;51.892;8.384;2023-09-30T09:47:26;101708.16;;;24.75;57.50
17383;BME280;8809;51.892;8.384;2023-09-30T09:49:57;101710.78;;;24.56;57.31
17383;BME280;8809;51.892;8.384;2023-09-30T09:52:24;101703.69;;;24.62;57.81
17383;BME280;8809;51.892;8.384;2023-09-30T09:54:51;101708.13;;;24.71;56.40
17383;BME280;8809;51.892;8.384;2023-09-30T09:57:18;101701.03;;;24.76;57.30
17383;BME280;8809;51.892;8.384;2023-09-30T09:59:46;101703.75;;;25.02;57.68
17383;BME280;8809;51.892;8.384;2023-09-30T10:02:14;101694.81;;;25.20;56.12
17383;BME280;8809;51.892;8.384;2023-09-30T10:04:44;101694.81;;;25.33;56.00
17383;BME280;8809;51.892;8.384;2023-09-30T10:07:16;101697.50;;;25.32;55.25
17383;BME280;8809;51.892;8.384;2023-09-30T10:33:32;101717.97;;;25.62;55.11
17383;BME280;8809;51.892;8.384;2023-09-30T10:36:00;101722.34;;;25.85;54.62
17383;BME280;8809;51.892;8.384;2023-09-30T10:38:41;101723.13;;;26.12;55.22
17383;BME280;8809;51.892;8.384;2023-09-30T10:41:08;101726.66;;;26.18;54.13
17383;BME280;8809;51.892;8.384;2023-09-30T10:43:37;101715.03;;;26.24;53.66
17383;BME280;8809;51.892;8.384;2023-09-30T10:46:10;101705.25;;;26.31;53.46
17383;BME280;8809;51.892;8.384;2023-09-30T10:48:54;101706.78;;;26.68;51.98
17383;BME280;8809;51.892;8.384;2023-09-30T10:51:22;101708.63;;;26.58;50.92
17383;BME280;8809;51.892;8.384;2023-09-30T10:53:51;101701.63;;;26.41;50.87
17383;BME280;8809;51.892;8.384;2023-09-30T10:56:19;101699.91;;;26.18;50.64
17383;BME280;8809;51.892;8.384;2023-09-30T10:58:47;101693.66;;;26.22;50.56
17383;BME280;8809;51.892;8.384;2023-09-30T11:01:16;101701.69;;;26.19;51.46
17383;BME280;8809;51.892;8.384;2023-09-30T11:03:44;101706.97;;;26.41;51.86
17383;BME280;8809;51.892;8.384;2023-09-30T11:06:13;101715.72;;;26.67;50.93
17383;BME280;8809;51.892;8.384;2023-09-30T11:08:51;101718.56;;;26.40;49.12
17383;BME280;8809;51.892;8.384;2023-09-30T11:31:56;101719.03;;;27.06;47.43
17383;BME280;8809;51.892;8.384;2023-09-30T11:34:31;101721.69;;;27.09;47.04
17383;BME280;8809;51.892;8.384;2023-09-30T11:37:00;101719.00;;;27.09;45.55
17383;BME280;8809;51.892;8.384;2023-09-30T11:39:29;101715.34;;;27.16;46.07
17383;BME280;8809;51.892;8.384;2023-09-30T11:41:56;101720.81;;;27.05;44.25
17383;BME280;8809;51.892;8.384;2023-09-30T11:44:24;101721.00;;;26.75;47.37
17383;BME280;8809;51.892;8.384;2023-09-30T11:46:57;101715.91;;;26.38;44.15
17383;BME280;8809;51.892;8.384;2023-09-30T11:49:28;101706.94;;;26.44;44.36
17383;BME280;8809;51.892;8.384;2023-09-30T11:51:55;101694.50;;;26.34;45.96
17383;BME280;8809;51.892;8.384;2023-09-30T11:54:22;101699.91;;;26.15;46.02
17383;BME280;8809;51.892;8.384;2023-09-30T11:56:49;101693.59;;;26.38;47.82
17383;BME280;8809;51.892;8.384;2023-09-30T11:59:17;101695.13;;;26.72;48.35
17383;BME280;8809;51.892;8.384;2023-09-30T12:01:48;101693.19;;;26.99;49.47
17383;BME280;8809;51.892;8.384;2023-09-30T12:04:42;101697.50;;;27.15;48.38
17383;BME280;8809;51.892;8.384;2023-09-30T12:07:09;101696.69;;;27.07;47.17
17383;BME280;8809;51.892;8.384;2023-09-30T12:33:22;101656.94;;;27.50;44.94
17383;BME280;8809;51.892;8.384;2023-09-30T12:35:48;101665.94;;;27.46;44.01
17383;BME280;8809;51.892;8.384;2023-09-30T12:38:17;101658.88;;;27.37;41.90
17383;BME280;8809;51.892;8.384;2023-09-30T12:40:44;101656.84;;;27.60;42.11
17383;BME280;8809;51.892;8.384;2023-09-30T12:43:14;101657.81;;;27.56;41.82
17383;BME280;8809;51.892;8.384;2023-09-30T12:45:43;101654.91;;;27.75;41.50
17383;BME280;8809;51.892;8.384;2023-09-30T12:48:12;101659.59;;;27.53;41.17
17383;BME280;8809;51.892;8.384;2023-09-30T12:50:41;101655.06;;;27.61;41.43
17383;BME280;8809;51.892;8.384;2023-09-30T12:53:08;101651.47;;;27.62;41.76
17383;BME280;8809;51.892;8.384;2023-09-30T12:55:35;101658.63;;;27.60;41.10
17383;BME280;8809;51.892;8.384;2023-09-30T12:58:02;101655.69;;;27.83;41.38
17383;BME280;8809;51.892;8.384;2023-09-30T13:00:31;101647.88;;;27.66;41.67
17383;BME280;8809;51.892;8.384;2023-09-30T13:02:58;101646.63;;;27.93;42.47
17383;BME280;8809;51.892;8.384;2023-09-30T13:05:25;101643.84;;;27.99;42.48
17383;BME280;8809;51.892;8.384;2023-09-30T13:07:55;101640.78;;;28.26;43.50
17383;BME280;8809;51.892;8.384;2023-09-30T13:31:08;101633.00;;;27.33;43.87
17383;BME280;8809;51.892;8.384;2023-09-30T13:33:34;101628.53;;;27.35;42.66
17383;BME280;8809;51.892;8.384;2023-09-30T13:36:01;101630.22;;;27.42;41.97
17383;BME280;8809;51.892;8.384;2023-09-30T13:38:28;101623.03;;;27.49;44.93
17383;BME280;8809;51.892;8.384;2023-09-30T13:40:55;101621.97;;;27.63;42.08
17383;BME280;8809;51.892;8.384;2023-09-30T13:43:22;101621.75;;;27.79;42.95
17383;BME280;8809;51.892;8.384;2023-09-30T13:45:52;101625.00;;;28.03;43.25
17383;BME280;8809;51.892;8.384;2023-09-30T13:48:20;101628.41;;;28.18;44.54
17383;BME280;8809;51.892;8.384;2023-09-30T13:50:49;101640.22;;;28.03;41.71
17383;BME280;8809;51.892;8.384;2023-09-30T13:53:16;101648.56;;;27.80;40.59
17383;BME280;8809;51.892;8.384;2023-09-30T13:55:43;101635.47;;;27.51;41.50
17383;BME280;8809;51.892;8.384;2023-09-30T13:58:11;101626.78;;;27.31;43.03
17383;BME280;8809;51.892;8.384;2023-09-30T14:00:38;101626.75;;;27.32;43.08
17383;BME280;8809;51.892;8.384;2023-09-30T14:03:05;101618.94;;;27.13;42.40
17383;BME280;8809;51.892;8.384;2023-09-30T14:05:34;101621.34;;;27.39;44.34
17383;BME280;8809;51.892;8.384;2023-09-30T14:08:04;101622.94;;;27.58;42.46
17383;BME280;8809;51.892;8.384;2023-09-30T14:34:19;101576.16;;;27.79;41.41
17383;BME280;8809;51.892;8.384;2023-09-30T14:36:46;101564.44;;;27.87;40.52
17383;BME280;8809;51.892;8.384;2023-09-30T14:39:13;101561.66;;;27.95;42.18
17383;BME280;8809;51.892;8.384;2023-09-30T14:41:41;101557.84;;;28.08;41.95
17383;BME280;8809;51.892;8.384;2023-09-30T14:44:08;101559.63;;;28.11;42.78
17383;BME280;8809;51.892;8.384;2023-09-30T14:46:37;101553.63;;;27.92;41.62
17383;BME280;8809;51.892;8.384;2023-09-30T14:49:04;101559.16;;;27.81;41.20
17383;BME280;8809;51.892;8.384;2023-09-30T14:51:34;101560.53;;;27.41;40.00
17383;BME280;8809;51.892;8.384;2023-09-30T14:54:03;101561.59;;;27.29;40.79
17383;BME280;8809;51.892;8.384;2023-09-30T14:56:31;101548.81;;;27.49;42.18
17383;BME280;8809;51.892;8.384;2023-09-30T14:58:58;101558.63;;;27.56;40.29
17383;BME280;8809;51.892;8.384;2023-09-30T15:01:25;101543.28;;;27.67;43.01
17383;BME280;8809;51.892;8.384;2023-09-30T15:03:52;101554.84;;;27.69;42.89
17383;BME280;8809;51.892;8.384;2023-09-30T15:06:22;101555.59;;;27.81;42.05
17383;BME280;8809;51.892;8.384;2023-09-30T15:08:51;101558.34;;;27.76;41.80
17383;BME280;8809;51.892;8.384;2023-09-30T15:34:15;101558.19;;;27.15;43.38
17383;BME280;8809;51.892;8.384;2023-09-30T15:36:42;101563.81;;;26.89;41.60
17383;BME280;8809;51.892;8.384;2023-09-30T15:39:09;101569.28;;;26.74;41.38
17383;BME280;8809;51.892;8.384;2023-09-30T15:41:37;101565.88;;;26.56;42.94
17383;BME280;8809;51.892;8.384;2023-09-30T15:44:07;101558.91;;;26.39;42.31
17383;BME280;8809;51.892;8.384;2023-09-30T15:46:34;101556.25;;;26.34;42.57
17383;BME280;8809;51.892;8.384;2023-09-30T15:49:01;101547.38;;;26.32;42.75
17383;BME280;8809;51.892;8.384;2023-09-30T15:51:31;101561.66;;;26.31;43.40
17383;BME280;8809;51.892;8.384;2023-09-30T15:53:58;101555.41;;;26.31;43.99
17383;BME280;8809;51.892;8.384;2023-09-30T15:56:25;101552.75;;;26.28;44.32
17383;BME280;8809;51.892;8.384;2023-09-30T15:58:52;101558.97;;;26.25;44.72
17383;BME280;8809;51.892;8.384;2023-09-30T16:01:19;101556.34;;;26.20;44.17
17383;BME280;8809;51.892;8.384;2023-09-30T16:03:46;101543.97;;;26.04;44.64
17383;BME280;8809;51.892;8.384;2023-09-30T16:06:13;101550.25;;;25.97;44.76
17383;BME280;8809;51.892;8.384;2023-09-30T16:08:42;101549.41;;;25.94;45.57
17383;BME280;8809;51.892;8.384;2023-09-30T16:31:52;101561.09;;;25.73;52.75
17383;BME280;8809;51.892;8.384;2023-09-30T16:34:19;101564.72;;;25.54;53.53
17383;BME280;8809;51.892;8.384;2023-09-30T16:36:46;101559.38;;;25.54;54.02
17383;BME280;8809;51.892;8.384;2023-09-30T16:39:13;101554.03;;;25.49;54.03
17383;BME280;8809;51.892;8.384;2023-09-30T16:41:43;101547.03;;;25.25;54.83
17383;BME280;8809;51.892;8.384;2023-09-30T16:44:10;101551.44;;;25.34;55.01
17383;BME280;8809;51.892;8.384;2023-09-30T16:46:37;101544.31;;;25.28;55.38
17383;BME280;8809;51.892;8.384;2023-09-30T16:49:06;101539.06;;;25.14;55.44
17383;BME280;8809;51.892;8.384;2023-09-30T16:51:34;101538.19;;;25.00;56.28
17383;BME280;8809;51.892;8.384;2023-09-30T16:54:10;101541.78;;;24.92;56.44
17383;BME280;8809;51.892;8.384;2023-09-30T16:56:37;101534.66;;;24.82;56.85
17383;BME280;8809;51.892;8.384;2023-09-30T16:59:04;101537.34;;;24.72;57.34
17383;BME280;8809;51.892;8.384;2023-09-30T17:01:34;101541.81;;;24.67;57.57
17383;BME280;8809;51.892;8.384;2023-09-30T17:04:02;101545.34;;;24.72;57.42
17383;BME280;8809;51.892;8.384;2023-09-30T17:06:33;101543.53;;;24.81;56.76
17383;BME280;8809;51.892;8.384;2023-09-30T17:09:00;101538.22;;;24.79;56.80
17383;BME280;8809;51.892;8.384;2023-09-30T17:14:11;101540.03;;;24.54;57.41
17383;BME280;8809;51.892;8.384;2023-09-30T17:34:45;101559.53;;;24.15;58.36
17383;BME280;8809;51.892;8.384;2023-09-30T17:37:12;101562.19;;;23.98;58.70
17383;BME280;8809;51.892;8.384;2023-09-30T17:39:40;101561.28;;;23.90;58.65
17383;BME280;8809;51.892;8.384;2023-09-30T17:42:08;101561.25;;;23.84;59.36
17383;BME280;8809;51.892;8.384;2023-09-30T17:44:35;101571.03;;;23.81;59.21
17383;BME280;8809;51.892;8.384;2023-09-30T17:47:02;101571.91;;;23.84;59.01
17383;BME280;8809;51.892;8.384;2023-09-30T17:49:29;101578.13;;;23.80;59.22
17383;BME280;8809;51.892;8.384;2023-09-30T17:51:58;101579.03;;;23.82;58.91
17383;BME280;8809;51.892;8.384;2023-09-30T17:54:25;101572.81;;;23.83;58.93
17383;BME280;8809;51.892;8.384;2023-09-30T17:56:52;101569.25;;;23.86;58.95
17383;BME280;8809;51.892;8.384;2023-09-30T17:59:19;101574.56;;;23.77;59.17
17383;BME280;8809;51.892;8.384;2023-09-30T18:01:46;101576.34;;;23.76;59.35
17383;BME280;8809;51.892;8.384;2023-09-30T18:04:13;101571.84;;;23.60;59.67
17383;BME280;8809;51.892;8.384;2023-09-30T18:06:40;101569.09;;;23.45;59.99
17383;BME280;8809;51.892;8.384;2023-09-30T18:09:10;101571.81;;;23.51;59.91
17383;BME280;8809;51.892;8.384;2023-09-30T18:33:11;101562.84;;;23.40;59.56
17383;BME280;8809;51.892;8.384;2023-09-30T18:35:42;101561.91;;;23.30;60.04
17383;BME280;8809;51.892;8.384;2023-09-30T18:38:10;101556.59;;;23.30;59.65
17383;BME280;8809;51.892;8.384;2023-09-30T18:40:39;101562.75;;;23.15;59.67
17383;BME280;8809;51.892;8.384;2023-09-30T18:43:09;101562.72;;;23.14;59.58
17383;BME280;8809;51.892;8.384;2023-09-30T18:45:39;101559.13;;;23.07;60.35
17383;BME280;8809;51.892;8.384;2023-09-30T18:48:06;101559.16;;;23.13;59.53
17383;BME280;8809;51.892;8.384;2023-09-30T18:50:42;101564.53;;;23.22;59.37
17383;BME280;8809;51.892;8.384;2023-09-30T18:53:10;101571.66;;;23.26;59.16
17383;BME280;8809;51.892;8.384;2023-09-30T18:55:38;101575.16;;;23.19;59.66
17383;BME280;8809;51.892;8.384;2023-09-30T18:58:06;101576.91;;;23.17;59.89